Time;durP1;ratioP1;P1;durP2;ratioP2;P2;SDS_P1;SDS_P2;PMS_P1;PMS_P2;Temp;Humidity;BMP_temperature;BMP_pressure;BME280_temperature;BME280_humidity;BME280_pressure;Samples;Min_cycle;Max_cycle;Signal;HPM_P1;HPM_P2
2023/09/14 00:00:50;;;;;;;2.60;2.07;;;10.80;99.90;;;;;;5055203;28;20501;-59
2023/09/14 00:03:18;;;;;;;4.30;2.20;;;10.70;99.90;;;;;;5058405;28;20473;-57
2023/09/14 00:05:50;;;;;;;2.37;1.83;;;10.80;99.90;;;;;;5056830;28;20500;-59
2023/09/14 00:08:19;;;;;;;2.87;1.90;;;10.70;99.90;;;;;;5053341;28;20481;-58
2023/09/14 00:10:54;;;;;;;3.80;1.53;;;10.70;99.90;;;;;;5056077;28;20476;-58
2023/09/14 00:13:22;;;;;;;2.80;1.80;;;10.70;99.90;;;;;;5061790;28;20473;-58
2023/09/14 00:15:50;;;;;;;2.03;1.70;;;10.70;99.90;;;;;;5060203;28;20582;-60
2023/09/14 00:18:19;;;;;;;2.50;1.63;;;10.70;99.90;;;;;;5061902;28;20473;-60
2023/09/14 00:20:52;;;;;;;2.37;1.80;;;10.70;99.90;;;;;;5062422;28;20551;-60
2023/09/14 00:23:21;;;;;;;3.10;1.87;;;10.70;99.90;;;;;;5062402;28;20476;-59
2023/09/14 00:25:50;;;;;;;3.40;1.63;;;10.70;99.90;;;;;;5061818;28;20493;-60
2023/09/14 00:28:18;;;;;;;3.60;1.60;;;10.60;99.90;;;;;;5057505;28;20534;-60
2023/09/14 00:30:46;;;;;;;5.80;2.20;;;10.60;99.90;;;;;;5057693;28;20798;-63
2023/09/14 00:33:14;;;;;;;2.43;1.70;;;10.60;99.90;;;;;;5061156;28;20859;-58
2023/09/14 00:35:46;;;;;;;2.97;2.10;;;10.60;99.90;;;;;;5058159;28;20516;-59
2023/09/14 00:38:16;;;;;;;2.70;1.77;;;10.50;99.90;;;;;;5060679;28;20759;-59
2023/09/14 00:40:44;;;;;;;2.53;1.50;;;10.50;99.90;;;;;;5062603;28;20485;-59
2023/09/14 00:43:12;;;;;;;4.03;1.60;;;10.50;99.90;;;;;;5059260;28;20550;-58
2023/09/14 00:45:41;;;;;;;3.60;2.27;;;10.50;99.90;;;;;;5055286;28;20575;-59
2023/09/14 00:48:09;;;;;;;2.43;2.00;;;10.50;99.90;;;;;;5053972;28;20474;-58
2023/09/14 00:50:38;;;;;;;1.80;1.53;;;10.40;99.90;;;;;;5056228;28;20521;-57
2023/09/14 00:53:08;;;;;;;3.27;1.77;;;10.40;99.90;;;;;;5058073;28;20588;-60
2023/09/14 00:55:38;;;;;;;2.40;1.80;;;10.40;99.90;;;;;;5061038;28;20504;-59
2023/09/14 00:58:07;;;;;;;2.70;1.60;;;10.40;99.90;;;;;;5058691;28;20572;-59
2023/09/14 01:00:35;;;;;;;2.23;1.43;;;10.40;99.90;;;;;;5060050;28;21150;-58
2023/09/14 01:03:04;;;;;;;4.80;2.00;;;10.40;99.90;;;;;;5052775;28;20490;-59
2023/09/14 01:05:32;;;;;;;2.03;1.50;;;10.40;99.90;;;;;;5058507;28;20513;-60
2023/09/14 01:08:00;;;;;;;1.90;1.60;;;10.30;99.90;;;;;;5058489;28;20548;-59
2023/09/14 01:10:28;;;;;;;2.43;1.90;;;10.30;99.90;;;;;;5064596;28;20575;-59
2023/09/14 01:12:58;;;;;;;4.53;1.67;;;10.30;99.90;;;;;;5062070;28;20663;-58
2023/09/14 01:15:30;;;;;;;2.90;1.80;;;10.30;99.90;;;;;;5063125;28;20489;-58
2023/09/14 01:18:06;;;;;;;2.70;1.63;;;10.30;99.90;;;;;;5063053;28;20472;-60
2023/09/14 01:20:46;;;;;;;3.63;1.70;;;10.30;99.90;;;;;;5056275;28;20579;-60
2023/09/14 01:23:28;;;;;;;3.63;2.10;;;10.20;99.90;;;;;;5059972;28;20599;-59
2023/09/14 01:26:00;;;;;;;1.87;1.60;;;10.20;99.90;;;;;;5058481;28;20914;-59
2023/09/14 01:28:28;;;;;;;1.87;1.60;;;10.20;99.90;;;;;;5058302;28;20473;-60
2023/09/14 01:30:56;;;;;;;2.50;2.10;;;10.20;99.90;;;;;;5062795;28;20485;-59
2023/09/14 01:33:27;;;;;;;1.90;1.40;;;10.20;99.90;;;;;;5062286;28;20469;-59
2023/09/14 01:36:00;;;;;;;2.57;1.77;;;10.20;99.90;;;;;;5060065;28;20551;-60
2023/09/14 01:38:30;;;;;;;2.70;1.60;;;10.20;99.90;;;;;;5059471;28;20961;-60
2023/09/14 01:41:00;;;;;;;2.03;1.77;;;10.10;99.90;;;;;;5059105;28;20511;-60
2023/09/14 01:43:28;;;;;;;3.20;1.70;;;10.10;99.90;;;;;;5058628;28;20469;-58
2023/09/14 01:45:56;;;;;;;2.87;1.73;;;10.10;99.90;;;;;;5054460;28;21020;-60
2023/09/14 01:48:24;;;;;;;2.57;2.13;;;10.00;99.90;;;;;;5058949;28;20504;-59
2023/09/14 01:50:52;;;;;;;2.80;2.10;;;10.00;99.90;;;;;;5059745;28;20569;-59
2023/09/14 01:53:20;;;;;;;2.27;1.40;;;10.00;99.90;;;;;;5055676;28;20815;-59
2023/09/14 01:55:48;;;;;;;3.57;2.00;;;10.00;99.90;;;;;;5059269;28;20577;-59
2023/09/14 01:58:17;;;;;;;2.57;1.67;;;10.00;99.90;;;;;;5057004;28;21136;-59
2023/09/14 02:00:45;;;;;;;4.23;1.90;;;10.00;99.90;;;;;;5056578;28;20580;-60
2023/09/14 02:03:13;;;;;;;3.00;1.60;;;10.00;99.90;;;;;;5054613;28;20556;-58
2023/09/14 02:05:41;;;;;;;2.70;1.83;;;9.90;99.90;;;;;;5057909;28;20489;-60
2023/09/14 02:08:09;;;;;;;2.37;1.47;;;9.90;99.90;;;;;;5056393;28;20524;-58
2023/09/14 02:10:37;;;;;;;2.53;1.83;;;9.90;99.90;;;;;;5059380;28;20591;-59
2023/09/14 02:13:05;;;;;;;1.93;1.50;;;9.90;99.90;;;;;;5055329;28;21068;-58
2023/09/14 02:15:34;;;;;;;3.07;1.60;;;9.90;99.90;;;;;;5059186;28;20535;-60
2023/09/14 02:18:02;;;;;;;1.90;1.73;;;9.90;99.90;;;;;;5060972;28;20626;-59
2023/09/14 02:20:31;;;;;;;3.00;1.80;;;9.80;99.90;;;;;;5054788;28;20542;-59
2023/09/14 02:22:59;;;;;;;4.03;1.97;;;9.80;99.90;;;;;;5056902;28;20538;-60
2023/09/14 02:25:27;;;;;;;2.30;1.60;;;9.80;99.90;;;;;;5059508;28;20539;-60
2023/09/14 02:27:55;;;;;;;3.00;2.10;;;9.80;99.90;;;;;;5051654;28;20546;-59
2023/09/14 02:30:26;;;;;;;2.13;1.60;;;9.80;99.90;;;;;;5055376;28;20502;-60
2023/09/14 02:32:55;;;;;;;2.03;1.23;;;9.80;99.90;;;;;;5056690;28;20988;-60
2023/09/14 02:35:23;;;;;;;2.90;1.63;;;9.80;99.90;;;;;;5057411;28;20500;-59
2023/09/14 02:37:51;;;;;;;3.03;1.63;;;9.70;99.90;;;;;;5058719;28;20970;-59
2023/09/14 02:40:19;;;;;;;2.00;1.40;;;9.70;99.90;;;;;;5054148;28;20552;-59
2023/09/14 02:42:47;;;;;;;2.90;1.63;;;9.70;99.90;;;;;;5059929;28;20513;-58
2023/09/14 02:45:15;;;;;;;1.33;1.23;;;9.70;99.90;;;;;;5059091;28;21230;-59
2023/09/14 02:47:43;;;;;;;2.33;1.90;;;9.70;99.90;;;;;;5056115;28;20475;-60
2023/09/14 02:50:12;;;;;;;2.00;1.40;;;9.70;99.90;;;;;;5059857;28;20489;-59
2023/09/14 02:52:40;;;;;;;2.80;1.70;;;9.60;99.90;;;;;;5057825;28;20655;-60
2023/09/14 02:55:09;;;;;;;3.03;1.80;;;9.60;99.90;;;;;;5060035;28;20496;-60
2023/09/14 02:57:37;;;;;;;2.00;1.77;;;9.60;99.90;;;;;;5059710;28;21158;-60
2023/09/14 03:00:07;;;;;;;2.33;1.60;;;9.60;99.90;;;;;;5059909;28;20493;-58
2023/09/14 03:02:35;;;;;;;3.70;1.70;;;9.50;99.90;;;;;;5051750;28;20513;-59
2023/09/14 03:05:04;;;;;;;2.80;1.80;;;9.50;99.90;;;;;;5060097;28;20488;-60
2023/09/14 03:07:33;;;;;;;1.90;1.73;;;9.50;99.90;;;;;;5052905;28;20584;-59
2023/09/14 03:10:01;;;;;;;1.57;1.37;;;9.50;99.90;;;;;;5054455;28;20469;-58
2023/09/14 03:12:29;;;;;;;3.10;1.80;;;9.50;99.90;;;;;;5060745;28;20495;-59
2023/09/14 03:14:57;;;;;;;2.17;1.50;;;9.50;99.90;;;;;;5061599;28;21199;-58
2023/09/14 03:17:25;;;;;;;2.60;1.43;;;9.50;99.90;;;;;;5063417;28;20473;-58
2023/09/14 03:19:53;;;;;;;3.00;1.60;;;9.40;99.90;;;;;;5061374;28;20839;-59
2023/09/14 03:22:21;;;;;;;2.60;1.77;;;9.50;99.90;;;;;;5065255;28;20573;-60
2023/09/14 03:24:51;;;;;;;2.50;1.97;;;9.40;99.90;;;;;;5065238;28;20843;-58
2023/09/14 03:27:19;;;;;;;2.07;1.70;;;9.40;99.90;;;;;;5062329;28;20946;-58
2023/09/14 03:29:47;;;;;;;3.23;1.73;;;9.40;99.90;;;;;;5061964;28;20476;-58
2023/09/14 03:32:15;;;;;;;4.77;1.90;;;9.40;99.90;;;;;;5061926;28;21638;-59
2023/09/14 03:34:42;;;;;;;3.13;1.70;;;9.40;99.90;;;;;;5065296;28;20555;-60
2023/09/14 03:37:10;;;;;;;2.30;1.50;;;9.40;99.90;;;;;;5060904;28;20480;-60
2023/09/14 03:39:38;;;;;;;1.90;1.70;;;9.40;99.90;;;;;;5065068;28;20480;-59
2023/09/14 03:42:10;;;;;;;2.30;1.50;;;9.30;99.90;;;;;;5058108;28;20496;-59
2023/09/14 03:44:38;;;;;;;3.00;1.83;;;9.30;99.90;;;;;;5061064;28;20469;-59
2023/09/14 03:47:06;;;;;;;2.53;1.50;;;9.30;99.90;;;;;;5064367;28;21230;-59
2023/09/14 03:49:34;;;;;;;2.57;1.57;;;9.30;99.90;;;;;;5065319;28;20565;-59
2023/09/14 03:52:02;;;;;;;1.77;1.20;;;9.30;99.90;;;;;;5056781;28;20863;-59
2023/09/14 03:54:30;;;;;;;1.97;1.57;;;9.30;99.90;;;;;;5062490;28;20461;-59
2023/09/14 03:56:58;;;;;;;5.20;2.07;;;9.30;99.90;;;;;;5055490;28;20558;-59
2023/09/14 03:59:28;;;;;;;2.67;1.83;;;9.30;99.90;;;;;;5052804;28;20572;-59
2023/09/14 04:01:56;;;;;;;2.27;1.60;;;9.30;99.90;;;;;;5059477;28;20481;-60
2023/09/14 04:04:24;;;;;;;1.50;1.40;;;9.20;99.90;;;;;;5057603;28;20470;-60
2023/09/14 04:06:52;;;;;;;1.90;1.50;;;9.20;99.90;;;;;;5060385;28;20966;-60
2023/09/14 04:09:20;;;;;;;1.83;1.70;;;9.20;99.90;;;;;;5057085;28;20477;-59
2023/09/14 04:11:48;;;;;;;1.97;1.60;;;9.10;99.90;;;;;;5055765;28;20481;-58
2023/09/14 04:14:16;;;;;;;2.53;1.80;;;9.10;99.90;;;;;;5059856;28;20490;-59
2023/09/14 04:16:46;;;;;;;1.90;1.40;;;9.10;99.90;;;;;;5057964;28;20517;-60
2023/09/14 04:19:15;;;;;;;2.67;2.00;;;9.10;99.90;;;;;;5059583;28;20481;-58
2023/09/14 04:21:43;;;;;;;2.23;1.50;;;9.00;99.90;;;;;;5057575;28;20838;-58
2023/09/14 04:24:11;;;;;;;1.53;1.40;;;9.00;99.90;;;;;;5048292;28;20470;-60
2023/09/14 04:26:39;;;;;;;3.50;1.87;;;9.00;99.90;;;;;;5058649;28;20619;-59
2023/09/14 04:29:07;;;;;;;2.93;1.77;;;9.10;99.90;;;;;;5056757;28;20865;-60
2023/09/14 04:31:35;;;;;;;3.47;1.60;;;9.00;99.90;;;;;;5052405;28;20626;-60
2023/09/14 04:34:05;;;;;;;4.40;1.77;;;9.00;99.90;;;;;;5051630;28;21194;-59
2023/09/14 04:36:33;;;;;;;1.50;1.33;;;9.00;99.90;;;;;;5058788;28;20576;-59
2023/09/14 04:39:01;;;;;;;2.00;1.60;;;9.00;99.90;;;;;;5054027;28;20874;-59
2023/09/14 04:41:30;;;;;;;2.47;1.40;;;9.00;99.90;;;;;;5048728;28;20496;-58
2023/09/14 04:43:58;;;;;;;3.10;1.60;;;8.90;99.90;;;;;;5055312;28;20476;-58
2023/09/14 04:46:27;;;;;;;2.00;1.50;;;8.90;99.90;;;;;;5048629;28;20501;-59
2023/09/14 04:48:56;;;;;;;1.63;1.47;;;8.90;99.90;;;;;;5051086;28;20469;-58
2023/09/14 04:51:25;;;;;;;2.43;1.90;;;8.90;99.90;;;;;;5059414;28;20565;-58
2023/09/14 04:53:53;;;;;;;2.07;1.63;;;8.90;99.90;;;;;;5057063;28;20501;-58
2023/09/14 04:56:21;;;;;;;2.27;1.80;;;9.00;99.90;;;;;;5057944;28;20489;-59
2023/09/14 04:58:49;;;;;;;4.27;1.57;;;9.00;99.90;;;;;;5056877;28;21200;-59
2023/09/14 05:01:19;;;;;;;2.07;1.67;;;9.00;99.90;;;;;;5042041;28;20570;-58
2023/09/14 05:03:47;;;;;;;4.63;2.90;;;9.00;99.90;;;;;;5047800;28;20470;-59
2023/09/14 05:06:15;;;;;;;2.27;1.80;;;9.00;99.90;;;;;;5051333;28;20500;-58
2023/09/14 05:08:44;;;;;;;2.10;1.90;;;9.00;99.90;;;;;;5049209;28;20556;-57
2023/09/14 05:11:13;;;;;;;1.70;1.60;;;9.00;99.90;;;;;;5036316;28;20493;-58
2023/09/14 05:13:41;;;;;;;2.30;1.70;;;9.00;99.90;;;;;;5046616;28;20481;-59
2023/09/14 05:16:23;;;;;;;3.03;1.80;;;9.00;99.90;;;;;;5044524;28;20978;-60
2023/09/14 05:18:51;;;;;;;2.90;2.00;;;9.00;99.90;;;;;;5050775;28;20469;-59
2023/09/14 05:21:19;;;;;;;2.30;1.70;;;9.00;99.90;;;;;;5051589;28;20485;-59
2023/09/14 05:23:48;;;;;;;2.70;1.90;;;9.00;99.90;;;;;;5056098;28;20559;-59
2023/09/14 05:26:16;;;;;;;3.30;1.80;;;9.00;99.90;;;;;;5053181;28;20573;-58
2023/09/14 05:28:44;;;;;;;2.37;1.60;;;9.00;99.90;;;;;;5053947;28;20978;-58
2023/09/14 05:31:12;;;;;;;1.67;1.57;;;9.00;99.90;;;;;;5054604;28;20490;-58
2023/09/14 05:33:41;;;;;;;4.13;2.30;;;9.00;99.90;;;;;;5049237;28;20948;-59
2023/09/14 05:36:09;;;;;;;3.20;1.80;;;9.10;99.90;;;;;;5047820;28;20508;-57
2023/09/14 05:38:37;;;;;;;2.40;2.20;;;9.10;99.90;;;;;;5058870;28;20950;-60
2023/09/14 05:41:06;;;;;;;2.00;1.80;;;9.10;99.90;;;;;;5056289;28;20477;-59
2023/09/14 05:43:34;;;;;;;3.13;2.40;;;9.10;99.90;;;;;;5061715;28;21033;-59
2023/09/14 05:46:02;;;;;;;2.90;2.20;;;9.10;99.90;;;;;;5056296;28;20555;-58
2023/09/14 05:48:30;;;;;;;2.03;1.90;;;9.10;99.90;;;;;;5056118;28;20479;-60
2023/09/14 05:50:58;;;;;;;3.80;2.23;;;9.20;99.90;;;;;;5054173;28;20634;-59
2023/09/14 05:53:26;;;;;;;3.40;2.47;;;9.20;99.90;;;;;;5057999;28;20835;-58
2023/09/14 05:55:55;;;;;;;2.93;2.10;;;9.20;99.90;;;;;;5057989;28;20590;-58
2023/09/14 05:58:24;;;;;;;3.90;2.33;;;9.30;99.90;;;;;;5064598;28;20505;-59
2023/09/14 06:00:53;;;;;;;3.67;2.30;;;9.30;99.90;;;;;;5052477;28;20473;-60
2023/09/14 06:03:21;;;;;;;2.40;1.80;;;9.30;99.90;;;;;;5057924;28;20566;-59
2023/09/14 06:05:49;;;;;;;3.03;2.33;;;9.30;99.90;;;;;;5057808;28;20503;-60
2023/09/14 06:08:17;;;;;;;3.20;2.30;;;9.30;99.90;;;;;;5058286;28;20507;-59
2023/09/14 06:10:45;;;;;;;2.43;2.23;;;9.40;99.90;;;;;;5054564;28;21032;-60
2023/09/14 06:13:13;;;;;;;2.73;2.53;;;9.50;99.90;;;;;;5060600;28;20602;-59
2023/09/14 06:15:43;;;;;;;2.20;2.00;;;9.50;99.90;;;;;;5060054;28;20481;-59
2023/09/14 06:18:11;;;;;;;3.70;2.30;;;9.50;99.90;;;;;;5060216;28;21295;-59
2023/09/14 06:20:39;;;;;;;2.17;1.90;;;9.60;99.90;;;;;;5052944;28;20469;-59
2023/09/14 06:23:07;;;;;;;3.50;2.40;;;9.70;99.90;;;;;;5057800;28;20477;-59
2023/09/14 06:25:35;;;;;;;2.40;2.20;;;9.70;99.90;;;;;;5056574;28;20558;-60
2023/09/14 06:28:03;;;;;;;4.10;2.50;;;9.80;99.90;;;;;;5054617;28;21481;-60
2023/09/14 06:30:31;;;;;;;2.90;2.27;;;9.90;99.90;;;;;;5054769;28;21099;-60
2023/09/14 06:33:01;;;;;;;3.10;2.00;;;10.00;99.90;;;;;;5056202;28;20493;-58
2023/09/14 06:35:29;;;;;;;4.40;2.10;;;10.30;99.90;;;;;;5055804;28;20501;-60
2023/09/14 06:37:57;;;;;;;3.97;2.40;;;10.50;99.90;;;;;;5056358;28;20561;-60
2023/09/14 06:40:26;;;;;;;5.73;2.20;;;10.60;99.90;;;;;;5056902;28;20472;-60
2023/09/14 06:42:55;;;;;;;3.07;1.90;;;10.60;99.90;;;;;;5053261;28;20487;-60
2023/09/14 06:45:23;;;;;;;4.20;1.87;;;10.60;99.90;;;;;;5056841;28;20542;-60
2023/09/14 06:47:51;;;;;;;3.80;1.90;;;10.60;99.90;;;;;;5057063;28;20477;-60
2023/09/14 06:50:20;;;;;;;3.40;1.93;;;10.60;99.90;;;;;;5061989;28;20553;-60
2023/09/14 06:52:49;;;;;;;4.70;1.70;;;10.70;99.90;;;;;;5058334;28;20481;-60
2023/09/14 06:55:17;;;;;;;2.77;1.80;;;10.70;99.90;;;;;;5058650;28;20580;-60
2023/09/14 06:57:45;;;;;;;2.70;1.70;;;10.80;99.90;;;;;;5067142;28;21191;-60
2023/09/14 07:00:16;;;;;;;3.10;2.10;;;10.80;99.90;;;;;;5060280;28;21017;-60
2023/09/14 07:02:44;;;;;;;2.93;1.90;;;10.80;99.90;;;;;;5053140;28;20485;-60
2023/09/14 07:05:13;;;;;;;2.70;2.00;;;10.90;99.90;;;;;;5055313;28;20481;-58
2023/09/14 07:07:42;;;;;;;2.20;1.63;;;11.00;99.90;;;;;;5059505;28;20480;-59
2023/09/14 07:10:11;;;;;;;4.00;1.77;;;11.10;99.90;;;;;;5053135;28;20552;-60
2023/09/14 07:12:39;;;;;;;1.70;1.60;;;11.10;99.90;;;;;;5060909;28;20538;-60
2023/09/14 07:15:08;;;;;;;4.93;2.17;;;11.10;99.90;;;;;;5062510;28;20909;-60
2023/09/14 07:17:36;;;;;;;1.93;1.70;;;11.20;99.90;;;;;;5063724;28;20544;-59
2023/09/14 07:20:06;;;;;;;4.33;1.90;;;11.30;99.90;;;;;;5060022;28;22483;-60
2023/09/14 07:22:34;;;;;;;1.67;1.30;;;11.40;99.90;;;;;;5063584;28;20564;-59
2023/09/14 07:25:05;;;;;;;3.30;1.37;;;11.50;99.90;;;;;;5063925;28;21531;-59
2023/09/14 07:27:33;;;;;;;2.03;1.57;;;11.60;99.90;;;;;;5064098;28;20476;-60
2023/09/14 07:30:01;;;;;;;2.00;1.53;;;11.70;99.90;;;;;;5062191;28;20515;-60
2023/09/14 07:32:29;;;;;;;5.50;1.70;;;11.80;99.90;;;;;;5064179;28;20539;-60
2023/09/14 07:35:00;;;;;;;2.30;1.67;;;11.80;99.90;;;;;;5063014;28;20513;-60
2023/09/14 07:37:28;;;;;;;2.70;1.50;;;11.80;99.90;;;;;;5063940;28;20469;-60
2023/09/14 07:39:56;;;;;;;3.53;1.77;;;11.90;99.90;;;;;;5060593;28;20481;-58
2023/09/14 07:42:25;;;;;;;3.13;1.50;;;12.00;99.90;;;;;;5060874;28;20496;-60
2023/09/14 07:44:53;;;;;;;1.93;1.37;;;12.00;99.90;;;;;;5059881;28;20585;-60
2023/09/14 07:47:24;;;;;;;2.53;1.53;;;12.10;99.90;;;;;;5060452;28;20565;-60
2023/09/14 07:49:52;;;;;;;1.67;1.50;;;12.20;99.90;;;;;;5061236;28;20473;-60
2023/09/14 07:52:23;;;;;;;3.47;1.27;;;12.20;99.90;;;;;;5063068;28;20547;-60
2023/09/14 07:54:51;;;;;;;3.70;1.27;;;12.30;99.90;;;;;;5060693;28;20489;-59
2023/09/14 07:57:19;;;;;;;2.37;1.30;;;12.30;99.90;;;;;;5057552;28;20505;-59
2023/09/14 07:59:48;;;;;;;2.33;1.30;;;12.40;99.90;;;;;;5061871;28;21040;-59
2023/09/14 08:02:16;;;;;;;3.20;1.40;;;12.50;99.90;;;;;;5061820;28;21341;-60
2023/09/14 08:04:44;;;;;;;2.73;1.27;;;12.50;99.90;;;;;;5064688;28;20484;-60
2023/09/14 08:07:12;;;;;;;2.60;1.30;;;12.60;99.90;;;;;;5062624;28;20478;-59
2023/09/14 08:09:40;;;;;;;2.00;1.30;;;12.80;99.90;;;;;;5060661;28;20474;-60
2023/09/14 08:12:09;;;;;;;2.93;1.20;;;12.90;99.90;;;;;;5061088;28;20581;-60
2023/09/14 08:14:37;;;;;;;2.77;1.60;;;13.00;99.90;;;;;;5062312;28;20507;-60
2023/09/14 08:17:06;;;;;;;2.30;1.30;;;13.10;99.90;;;;;;5061468;28;20470;-58
2023/09/14 08:19:34;;;;;;;3.20;1.33;;;13.10;99.90;;;;;;5065140;28;20477;-58
2023/09/14 08:22:03;;;;;;;2.20;1.87;;;13.20;99.90;;;;;;5062793;28;20925;-58
2023/09/14 08:24:31;;;;;;;2.77;1.40;;;13.30;99.90;;;;;;5062122;28;20569;-58
2023/09/14 08:26:59;;;;;;;4.43;1.80;;;13.40;99.90;;;;;;5058862;28;20528;-57
2023/09/14 08:29:27;;;;;;;1.93;1.20;;;13.50;99.90;;;;;;5061137;28;20496;-58
2023/09/14 08:31:55;;;;;;;1.30;1.10;;;13.50;99.90;;;;;;5063995;28;20481;-57
2023/09/14 08:34:25;;;;;;;2.20;1.10;;;13.60;99.90;;;;;;5061237;28;20504;-59
2023/09/14 08:36:53;;;;;;;3.00;1.30;;;13.70;99.90;;;;;;5065486;28;20548;-59
2023/09/14 08:39:21;;;;;;;2.00;1.00;;;13.80;99.90;;;;;;5063223;28;20473;-58
2023/09/14 08:41:49;;;;;;;1.60;1.10;;;13.80;99.90;;;;;;5064069;28;20473;-59
2023/09/14 08:44:19;;;;;;;2.07;1.10;;;13.90;99.90;;;;;;5063501;28;20473;-58
2023/09/14 08:46:48;;;;;;;3.23;1.30;;;14.00;99.90;;;;;;5062815;28;20517;-58
2023/09/14 08:49:18;;;;;;;1.77;1.10;;;14.00;99.90;;;;;;5062647;28;20473;-58
2023/09/14 08:51:51;;;;;;;3.60;1.30;;;14.20;99.90;;;;;;5062896;28;20496;-58
2023/09/14 08:54:23;;;;;;;1.80;1.47;;;14.20;99.90;;;;;;5063445;28;20581;-58
2023/09/14 08:56:51;;;;;;;2.40;1.10;;;14.30;99.90;;;;;;5065645;28;20526;-58
2023/09/14 08:59:21;;;;;;;1.90;1.03;;;14.30;99.90;;;;;;5064200;28;20534;-58
2023/09/14 09:01:50;;;;;;;1.50;1.30;;;14.40;99.90;;;;;;5063931;28;20473;-58
2023/09/14 09:04:18;;;;;;;2.30;1.10;;;14.50;99.90;;;;;;5063157;28;20469;-58
2023/09/14 09:06:49;;;;;;;1.67;1.00;;;14.50;99.90;;;;;;5064610;28;20542;-58
2023/09/14 09:09:21;;;;;;;2.93;1.40;;;14.70;99.90;;;;;;5063522;28;20469;-58
2023/09/14 09:11:49;;;;;;;2.13;1.33;;;14.70;99.90;;;;;;5062337;28;20488;-58
2023/09/14 09:14:17;;;;;;;2.33;1.03;;;14.80;99.90;;;;;;5064197;28;20584;-58
2023/09/14 09:16:45;;;;;;;4.57;1.10;;;14.90;99.90;;;;;;5060348;28;20489;-57
2023/09/14 09:19:13;;;;;;;1.60;0.73;;;15.00;99.90;;;;;;5061717;28;20840;-58
2023/09/14 09:21:42;;;;;;;3.50;1.00;;;15.10;99.90;;;;;;5062616;28;20492;-58
2023/09/14 09:24:14;;;;;;;2.30;0.90;;;15.20;99.90;;;;;;5056673;28;20478;-58
2023/09/14 09:26:44;;;;;;;2.90;1.10;;;15.30;99.90;;;;;;5063533;28;20572;-58
2023/09/14 09:29:16;;;;;;;1.53;0.87;;;15.30;99.90;;;;;;5062238;28;20564;-58
2023/09/14 09:31:45;;;;;;;4.73;1.10;;;15.40;99.90;;;;;;5059779;28;20493;-59
2023/09/14 09:34:15;;;;;;;2.50;0.90;;;15.50;99.90;;;;;;5061650;28;20496;-58
2023/09/14 09:36:43;;;;;;;3.10;1.07;;;15.50;99.90;;;;;;5059088;28;20824;-58
2023/09/14 09:39:13;;;;;;;1.90;0.90;;;15.60;99.90;;;;;;5063715;28;20469;-59
2023/09/14 09:41:45;;;;;;;1.90;1.00;;;15.70;99.90;;;;;;5060714;28;20481;-58
2023/09/14 09:44:15;;;;;;;1.27;1.00;;;15.80;99.90;;;;;;5063360;28;20860;-58
2023/09/14 09:46:44;;;;;;;1.63;1.10;;;15.90;99.90;;;;;;5058890;28;20485;-59
2023/09/14 09:49:22;;;;;;;1.23;0.90;;;15.90;99.90;;;;;;5056861;28;20557;-59
2023/09/14 09:51:52;;;;;;;2.10;1.17;;;16.00;99.90;;;;;;5060036;28;20507;-59
2023/09/14 09:54:24;;;;;;;2.33;1.40;;;16.10;99.90;;;;;;5056143;28;21005;-59
2023/09/14 09:56:52;;;;;;;1.70;0.83;;;16.20;99.90;;;;;;5063325;28;20473;-59
2023/09/14 09:59:23;;;;;;;3.50;1.07;;;16.30;99.90;;;;;;5055630;28;20505;-59
2023/09/14 10:01:51;;;;;;;3.70;1.23;;;16.40;99.90;;;;;;5058772;28;20505;-58
2023/09/14 10:04:19;;;;;;;1.13;1.03;;;16.50;99.90;;;;;;5057736;28;20970;-60
2023/09/14 10:06:51;;;;;;;2.27;0.90;;;16.60;99.90;;;;;;5057172;28;21493;-59
2023/09/14 10:09:22;;;;;;;2.60;0.90;;;16.70;99.90;;;;;;5062415;28;20573;-59
2023/09/14 10:11:51;;;;;;;3.90;1.00;;;16.90;99.90;;;;;;5060284;28;20489;-59
2023/09/14 10:14:22;;;;;;;1.90;0.87;;;16.90;99.90;;;;;;5060736;28;20613;-61
2023/09/14 10:16:54;;;;;;;3.83;1.10;;;17.00;99.90;;;;;;5058099;28;20951;-59
2023/09/14 10:19:23;;;;;;;1.60;0.93;;;17.10;99.90;;;;;;5060792;28;20489;-58
2023/09/14 10:21:53;;;;;;;2.73;0.80;;;17.00;99.90;;;;;;5062625;28;20499;-60
2023/09/14 10:24:25;;;;;;;1.53;0.70;;;17.00;99.90;;;;;;5059261;28;20472;-60
2023/09/14 10:26:55;;;;;;;1.47;0.90;;;17.10;99.90;;;;;;5061781;28;20555;-60
2023/09/14 10:29:26;;;;;;;1.20;1.00;;;17.30;99.90;;;;;;5059235;28;20481;-60
2023/09/14 10:31:57;;;;;;;2.40;0.90;;;17.30;99.90;;;;;;5061266;28;20489;-60
2023/09/14 10:34:29;;;;;;;0.90;0.70;;;17.40;99.90;;;;;;5061148;28;20485;-60
2023/09/14 10:36:59;;;;;;;1.63;1.30;;;17.50;99.90;;;;;;5056774;28;20552;-60
2023/09/14 10:39:28;;;;;;;2.80;0.80;;;17.70;99.90;;;;;;5061556;28;21120;-60
2023/09/14 10:41:57;;;;;;;2.00;1.00;;;17.80;99.90;;;;;;5063312;28;20672;-60
2023/09/14 10:44:25;;;;;;;2.10;1.00;;;17.90;99.90;;;;;;5059615;28;20471;-60
2023/09/14 10:46:56;;;;;;;1.63;0.70;;;18.00;99.90;;;;;;5060757;28;20478;-60
2023/09/14 10:49:26;;;;;;;2.37;1.00;;;18.00;99.90;;;;;;5057658;28;20938;-60
2023/09/14 10:51:56;;;;;;;1.97;1.10;;;18.00;99.90;;;;;;5061635;28;20473;-59
2023/09/14 10:54:25;;;;;;;2.00;0.93;;;18.00;99.90;;;;;;5054462;28;20547;-60
2023/09/14 10:56:57;;;;;;;1.93;0.90;;;18.10;99.90;;;;;;5053701;28;20558;-60
2023/09/14 10:59:46;;;;;;;5.03;1.10;;;18.30;99.90;;;;;;5055456;28;20838;-61
2023/09/14 11:02:54;;;;;;;4.23;1.00;;;18.30;99.90;;;;;;5057878;28;20560;-61
2023/09/14 11:05:43;;;;;;;4.10;1.63;;;18.30;99.90;;;;;;5055769;28;21357;-60
2023/09/14 11:08:12;;;;;;;2.60;1.30;;;18.30;99.90;;;;;;5058615;28;20470;-61
2023/09/14 11:10:54;;;;;;;3.47;1.20;;;18.30;99.90;;;;;;5059610;28;20485;-60
2023/09/14 11:13:33;;;;;;;2.50;1.17;;;18.30;99.90;;;;;;5058491;28;20584;-60
2023/09/14 11:16:13;;;;;;;1.83;1.00;;;18.30;99.90;;;;;;5063573;28;20504;-60
2023/09/14 11:18:54;;;;;;;3.57;1.10;;;18.20;99.90;;;;;;5060868;28;20988;-59
2023/09/14 11:21:42;;;;;;;1.63;0.80;;;18.10;99.90;;;;;;5061476;28;20918;-60
2023/09/14 11:24:12;;;;;;;1.73;0.80;;;18.10;99.90;;;;;;5060165;28;20886;-60
2023/09/14 11:26:47;;;;;;;2.17;0.90;;;18.10;99.90;;;;;;5058438;28;20478;-60
2023/09/14 11:29:18;;;;;;;1.07;0.90;;;18.20;99.90;;;;;;5059663;28;20716;-60
2023/09/14 11:31:56;;;;;;;2.10;1.17;;;18.50;99.90;;;;;;5057876;28;20484;-60
2023/09/14 11:34:32;;;;;;;3.87;1.30;;;18.80;99.90;;;;;;5063025;28;20477;-60
2023/09/14 11:37:06;;;;;;;2.60;1.10;;;19.00;99.90;;;;;;5061145;28;20519;-60
2023/09/14 11:39:41;;;;;;;6.37;1.30;;;19.30;99.90;;;;;;5063129;28;20583;-59
2023/09/14 11:42:13;;;;;;;0.90;0.77;;;19.50;99.90;;;;;;5065892;28;21016;-60
2023/09/14 11:44:50;;;;;;;2.47;1.10;;;19.80;99.90;;;;;;5063646;28;20491;-60
2023/09/14 11:47:23;;;;;;;2.20;1.13;;;20.00;99.90;;;;;;5065174;28;20560;-60
2023/09/14 11:50:02;;;;;;;3.67;1.33;;;20.30;99.90;;;;;;5062881;28;20504;-61
2023/09/14 11:52:31;;;;;;;4.00;1.30;;;20.30;99.90;;;;;;5064190;28;20477;-60
2023/09/14 11:54:59;;;;;;;1.63;1.10;;;20.20;99.90;;;;;;5062506;28;20594;-61
2023/09/14 11:57:28;;;;;;;1.43;1.10;;;20.20;99.90;;;;;;5065190;28;20535;-61
2023/09/14 11:59:59;;;;;;;4.90;1.50;;;20.30;99.90;;;;;;5065116;28;20523;-61
2023/09/14 12:02:27;;;;;;;2.17;1.13;;;20.50;99.90;;;;;;5057936;28;20504;-60
2023/09/14 12:04:55;;;;;;;2.10;0.93;;;20.80;99.90;;;;;;5055576;28;20485;-61
2023/09/14 12:07:23;;;;;;;1.77;1.00;;;20.90;99.90;;;;;;5063710;28;20465;-59
2023/09/14 12:09:52;;;;;;;2.30;0.80;;;21.00;99.90;;;;;;5061144;28;20838;-59
2023/09/14 12:12:28;;;;;;;1.43;0.90;;;21.00;96.00;;;;;;5052868;28;20546;-59
2023/09/14 12:14:58;;;;;;;1.87;0.80;;;21.00;98.10;;;;;;5064058;28;20505;-59
2023/09/14 12:17:28;;;;;;;2.73;1.00;;;20.90;98.10;;;;;;5053246;28;20480;-59
2023/09/14 12:19:59;;;;;;;2.50;0.90;;;21.10;99.90;;;;;;5053088;28;20466;-60
2023/09/14 12:22:30;;;;;;;2.03;0.80;;;21.40;99.90;;;;;;5059277;28;20485;-59
2023/09/14 12:25:00;;;;;;;2.37;1.07;;;21.70;99.90;;;;;;5050927;28;20589;-59
2023/09/14 12:27:29;;;;;;;1.80;0.80;;;21.80;96.20;;;;;;5052740;28;21226;-59
2023/09/14 12:29:59;;;;;;;1.30;1.00;;;22.00;99.90;;;;;;5063685;28;20470;-59
2023/09/14 12:32:27;;;;;;;1.07;0.90;;;22.10;99.90;;;;;;5051446;28;20478;-59
2023/09/14 12:34:56;;;;;;;1.43;0.70;;;22.10;99.90;;;;;;5052847;28;20505;-60
2023/09/14 12:37:24;;;;;;;2.03;1.00;;;22.00;99.40;;;;;;5058795;28;20562;-59
2023/09/14 12:39:52;;;;;;;1.10;0.97;;;22.10;99.60;;;;;;5052579;28;20470;-60
2023/09/14 12:42:22;;;;;;;1.50;0.90;;;22.30;99.90;;;;;;5053409;28;20491;-60
2023/09/14 12:44:52;;;;;;;1.60;0.80;;;22.60;95.10;;;;;;5055681;28;20493;-60
2023/09/14 12:47:22;;;;;;;3.97;1.00;;;22.60;90.40;;;;;;5057409;28;20851;-60
2023/09/14 12:49:50;;;;;;;2.00;1.00;;;22.50;94.80;;;;;;5055387;28;20569;-59
2023/09/14 12:52:21;;;;;;;3.33;1.30;;;22.40;96.70;;;;;;5060047;28;20572;-60
2023/09/14 12:54:49;;;;;;;2.37;1.10;;;22.30;96.80;;;;;;5056300;28;21489;-59
2023/09/14 12:57:19;;;;;;;1.70;1.33;;;22.10;96.70;;;;;;5054332;28;20488;-60
2023/09/14 13:00:00;;;;;;;1.20;1.10;;;22.60;96.30;;;;;;5054968;28;20575;-59
2023/09/14 13:02:33;;;;;;;1.90;1.00;;;23.90;89.90;;;;;;5054203;28;20865;-59